AirNav   TITAN Aviation Fuels
 
 1088 users online  

2OH1 Magruder Memorial Heliport
Port Clinton, Ohio, USA

GOING TO PORT CLINTON?


FAA INFORMATION EFFECTIVE 22 APRIL 2021

Location

FAA Identifier: 2OH1
Lat/Long: 41-30-21.7700N 082-55-50.2700W
41-30.362833N 082-55.837833W
41.5060472,-82.9306306
(estimated)
Elevation: 580 ft. / 177 m (estimated)
Variation: 07W (2000)
From city: 1 mile N of PORT CLINTON, OH
Time zone: UTC -4 (UTC -5 during Standard Time)
Zip code: 43452

Heliport Operations

Heliport use: Private use, MEDICAL USE.
Activation date: 02/1990
Control tower: no
ARTCC: CLEVELAND CENTER
FSS: CLEVELAND FLIGHT SERVICE STATION
NOTAMs facility: FDC (NOTAM-D service not available)
Attendance: UNATNDD
Wind indicator: yes
Segmented circle: no

Heliport Communications

WX AWOS-3 at PCW (2.8 nm E): 118.775 (419-734-9955)
WX AWOS-3 at S24 (13 nm S): 119.575 (419-547-6932)

Nearby radio navigation aids

VOR radial/distance  VOR name  Freq  Var
DJBr289/35.7DRYER VOR/DME113.6005W

 
NDB name  Hdg/Dist  Freq  Var  ID
PORT CLINTON262/2.942307WPCW .--. -.-. .--
TIFFIN032/27.826905WTII - .. ..
GROSSE ILE171/37.141907WRYS .-. -.-- ...

Heliport Services

Runway Information

Helipad H1

Dimensions: 50 x 50 ft. / 15 x 15 m
Surface: concrete
Latitude: 41-30.362833N
Longitude: 082-55.837833W
Elevation: 580.0 ft.
Traffic pattern: leftleft

Heliport Ownership and Management from official FAA records

Ownership: Privately-owned
Owner: MAGRUDER MEMORIAL HOSPITAL
615 FULTON STREET
PORT CLINTON, OH 43452
Phone 419-734-3131
Manager: J. TODD ALMENDINGER
615 FULTON STREET
PORT CLINTON, OH 43452
ADNL CTC TYSON WHEELER 419-732-4018 - TWHEELER@MAGRUDERHOSPITAL.COM.

Additional Remarks

A52-H1 28' BLDG 410' SW; 35' BLDG 260' W; 15' BLDG 136' NW; 22' POLES 40' W.
FOR CD CTC TOLEDO APCH AT 419-865-1495

Instrument Procedures

There are no published instrument procedures at 2OH1.

Some nearby airports with instrument procedures:

KPCW - Erie-Ottawa International Airport (3 nm E)
S24 - Sandusky County Regional Airport (13 nm S)
14G - Fremont Airport (15 nm SW)
5A1 - Norwalk-Huron County Airport (23 nm SE)
KTDZ - Toledo Executive Airport (25 nm W)
 
Loc | Ops | Rwys | IFR | FBO | Links
Com | Nav | Svcs | Stats | Notes
Area around 2OH1 (Magruder Memorial Heliport)
 
Road maps at: MapQuest Bing Google
 
Aerial photo
No photo
 
Sectional chart

 
Airport distance calculator
Flying to Magruder Memorial Heliport? Find the distance to fly.

From to 2OH1

Sunrise and sunset
Times for 16-May-2021
 Local
(UTC-4)
 Zulu
(UTC)
Morning civil twilight05:4109:41
Sunrise06:1310:13
Sunset20:4400:44
Evening civil twilight21:1501:15

Current date and time
Zulu (UTC)  17-May-2021 00:24:21
Local (UTC-4)  16-May-2021 20:24:21
 
METAR
KPCW 
3nm E 
162355Z AUTO 11007KT 10SM CLR 15/08 A3018 RMK AO2
TAF
KTOL 
39nm W 
161720Z 1618/1718 12006KT P6SM FEW060 SCT090 FM170300 VRB03KT P6SM SCT070 BKN100
KFDY 
44nm SW 
161720Z 1618/1718 VRB04KT P6SM BKN060 FM170300 VRB03KT P6SM SCT060 BKN100
KMFD 
45nm SE 
161720Z 1618/1718 VRB04KT P6SM BKN060 FM170300 VRB02KT P6SM SCT060 BKN150
CYQG 
46nm N 
161741Z 1618/1718 18007KT P6SM BKN070 FM170200 13005KT P6SM SCT070 FM171400 20010KT P6SM BKN060 FM171700 19012KT P6SM FEW080 RMK FCST BASED ON AUTO OBS. NXT FCST BY 170000Z
KDTW 
47nm N 
162110Z 1621/1724 16007KT P6SM SCT080 BKN120 FM170200 13004KT P6SM BKN200 FM171500 16006KT P6SM SCT050 BKN150
KCLE 
49nm E 
162039Z 1621/1724 02006KT P6SM SCT090 FM170300 VRB03KT P6SM SCT060 BKN150
NOTAMs
Click for the latest NOTAMs
NOTAMs are issued by the DoD/FAA and will open in a separate window not controlled by AirNav.

 

 
 

Would you like to see your business listed on this page?

 If your business provides an interesting product or service to pilots, flight crews, aircraft, or users of the Magruder Memorial Heliport, you should consider listing it here.  To start the listing process, click on the button below
 
Add a business
 

Other Pages about Magruder Memorial Heliport

Update a link
 
Copyright © AirNav, LLC. All rights reserved. Privacy Policy  Contact